Time;durP1;ratioP1;P1;durP2;ratioP2;P2;SDS_P1;SDS_P2;PMS_P1;PMS_P2;Temp;Humidity;BMP_temperature;BMP_pressure;BME280_temperature;BME280_humidity;BME280_pressure;Samples;Min_cycle;Max_cycle;Signal;HPM_P1;HPM_P2
2023/10/04 00:01:42;;;;;;;41.90;15.90;;;;;;;11.53;70.84;100093.35;79479;1295;3012701;-61
2023/10/04 00:04:10;;;;;;;37.40;15.10;;;;;;;11.57;70.56;100088.58;79424;1298;3013843;-70
2023/10/04 00:06:39;;;;;;;29.40;13.90;;;;;;;11.49;70.84;100093.25;78404;1297;3053367;-69
2023/10/04 00:09:05;;;;;;;34.70;13.50;;;;;;;11.56;70.25;100089.68;79354;1295;3013282;-71
2023/10/04 00:11:32;;;;;;;31.20;12.40;;;;;;;11.51;70.40;100090.81;79412;1295;3011423;-68
2023/10/04 00:14:00;;;;;;;34.40;12.10;;;;;;;11.40;70.89;100093.52;78121;1298;3048671;-65
2023/10/04 00:16:27;;;;;;;25.30;9.70;;;;;;;11.42;71.35;100094.46;77035;1300;3401608;-65
2023/10/04 00:18:54;;;;;;;33.00;12.40;;;;;;;11.97;70.18;100084.64;79452;1295;3013166;-63
2023/10/04 00:21:23;;;;;;;29.10;11.40;;;;;;;12.44;68.71;100085.64;78308;1300;3053555;-68
2023/10/04 00:23:49;;;;;;;36.90;13.20;;;;;;;12.62;67.46;100087.23;79487;1294;3011788;-67
2023/10/04 00:26:16;;;;;;;35.90;13.40;;;;;;;12.69;67.32;100083.80;79567;1300;3011756;-68
2023/10/04 00:28:45;;;;;;;37.80;13.50;;;;;;;12.32;67.70;100083.17;78170;1294;3048851;-62
2023/10/04 00:31:12;;;;;;;35.00;12.90;;;;;;;12.08;69.11;100085.05;79257;1294;3013814;-70
2023/10/04 00:33:40;;;;;;;29.30;13.20;;;;;;;12.00;69.26;100086.23;79280;1294;3011884;-64
2023/10/04 00:36:08;;;;;;;36.70;13.60;;;;;;;11.80;70.52;100084.48;78062;1300;3052805;-71
2023/10/04 00:38:34;;;;;;;39.40;14.20;;;;;;;11.75;70.80;100085.14;79381;1298;3013453;-67
2023/10/04 00:41:01;;;;;;;29.80;12.40;;;;;;;11.70;70.82;100086.10;79289;1294;3011648;-67
2023/10/04 00:43:31;;;;;;;35.20;14.60;;;;;;;11.67;71.23;100080.68;78181;1299;3029214;-66
2023/10/04 00:45:57;;;;;;;33.80;12.90;;;;;;;11.56;71.62;100081.95;79406;1294;3013022;-62
2023/10/04 00:48:29;;;;;;;43.50;15.60;;;;;;;11.52;71.88;100084.85;79213;1295;3011653;-66
2023/10/04 00:50:59;;;;;;;43.70;13.30;;;;;;;11.45;72.89;100086.58;78205;1297;3052277;-66
2023/10/04 00:53:26;;;;;;;38.70;11.70;;;;;;;11.49;73.18;100091.31;79376;1295;3013655;-67
2023/10/04 00:55:56;;;;;;;41.90;11.70;;;;;;;11.97;71.74;100080.77;79439;1294;3011676;-64
2023/10/04 00:58:24;;;;;;;56.10;15.10;;;;;;;12.50;69.42;100079.69;77986;1300;3049020;-67
2023/10/04 01:00:51;;;;;;;36.70;13.30;;;;;;;12.53;68.87;100079.46;79337;1295;3018435;-70
2023/10/04 01:03:24;;;;;;;37.30;13.20;;;;;;;12.44;68.78;100080.38;79360;1295;3013627;-65
2023/10/04 01:05:52;;;;;;;31.30;12.40;;;;;;;12.32;69.26;100075.45;78193;1297;3054403;-66
2023/10/04 01:08:21;;;;;;;38.80;12.60;;;;;;;12.16;69.93;100076.02;79396;1297;3013314;-67
2023/10/04 01:10:50;;;;;;;39.80;12.60;;;;;;;12.06;70.35;100076.92;78890;1294;3011928;-63
2023/10/04 01:13:21;;;;;;;43.60;13.00;;;;;;;11.96;70.55;100078.70;79457;1294;3014307;-62
2023/10/04 01:15:51;;;;;;;43.70;12.40;;;;;;;11.84;71.07;100079.58;78174;1297;3054122;-60
2023/10/04 01:18:18;;;;;;;34.80;11.70;;;;;;;11.82;70.86;100077.91;79498;1297;3013418;-64
2023/10/04 01:20:47;;;;;;;40.30;11.90;;;;;;;11.67;71.80;100075.21;78836;1296;3011925;-60
2023/10/04 01:23:14;;;;;;;37.90;11.20;;;;;;;11.62;71.92;100069.88;79538;1294;3019647;-66
2023/10/04 01:25:46;;;;;;;35.70;12.70;;;;;;;11.55;72.82;100068.00;79421;1297;3011497;-64
2023/10/04 01:28:26;;;;;;;37.00;11.10;;;;;;;11.46;73.48;100070.92;78228;1297;3058350;-69
2023/10/04 01:30:55;;;;;;;32.50;8.30;;;;;;;11.42;74.23;100068.17;78051;1299;3049959;-63
2023/10/04 01:33:22;;;;;;;25.40;9.80;;;;;;;12.01;72.87;100060.66;79374;1295;3013781;-65
2023/10/04 01:35:53;;;;;;;28.00;9.80;;;;;;;12.41;71.22;100058.23;79365;1295;3012077;-64
2023/10/04 01:39:48;;;;;;;33.20;9.80;;;;;;;12.37;71.97;100052.52;80002;1301;3011642;-61
2023/10/04 01:42:14;;;;;;;25.90;9.60;;;;;;;12.07;73.24;100055.11;78864;1301;3013127;-64
2023/10/04 01:44:41;;;;;;;21.30;9.80;;;;;;;11.83;74.52;100054.48;78763;1306;3011779;-68
2023/10/04 01:47:10;;;;;;;27.40;9.60;;;;;;;11.72;75.35;100053.02;77773;1306;3028228;-68
2023/10/04 01:49:37;;;;;;;30.00;10.90;;;;;;;11.66;75.73;100046.35;78967;1301;3013336;-64
2023/10/04 01:52:05;;;;;;;28.30;11.20;;;;;;;11.55;76.30;100044.98;76708;1299;3235048;-66
2023/10/04 01:54:33;;;;;;;21.10;8.90;;;;;;;11.48;76.46;100047.52;77978;1303;3028356;-64
2023/10/04 01:57:00;;;;;;;29.20;9.60;;;;;;;12.06;75.37;100040.88;79177;1303;3020592;-66
2023/10/04 01:59:26;;;;;;;23.90;9.90;;;;;;;12.63;72.79;100039.86;79181;1303;3013282;-66
2023/10/04 02:01:57;;;;;;;25.30;10.50;;;;;;;12.44;72.23;100041.02;78449;1301;3029059;-67
2023/10/04 02:04:23;;;;;;;26.60;10.70;;;;;;;12.35;72.38;100037.69;79333;1301;3011530;-70
2023/10/04 02:06:52;;;;;;;25.60;9.90;;;;;;;12.04;73.34;100033.86;78592;1297;3013756;-68
2023/10/04 02:09:20;;;;;;;27.30;11.70;;;;;;;11.80;74.22;100037.43;79149;1301;3012919;-65
2023/10/04 02:11:47;;;;;;;30.70;10.70;;;;;;;11.61;75.17;100038.02;79131;1298;3014129;-67
2023/10/04 02:14:15;;;;;;;23.70;10.30;;;;;;;11.51;75.63;100037.35;77878;1303;3049663;-65
2023/10/04 02:16:41;;;;;;;29.30;10.50;;;;;;;11.37;76.11;100034.61;79247;1301;3013045;-63
2023/10/04 02:19:09;;;;;;;27.20;8.50;;;;;;;11.32;76.51;100032.39;79201;1297;3011747;-67
2023/10/04 02:21:37;;;;;;;25.70;8.50;;;;;;;11.76;75.73;100033.84;78017;1303;3050357;-62
2023/10/04 02:24:08;;;;;;;23.40;8.80;;;;;;;12.12;73.98;100029.16;79202;1298;3013586;-60
2023/10/04 02:26:36;;;;;;;30.60;9.90;;;;;;;12.15;73.48;100031.27;77958;1303;3053603;-66
2023/10/04 02:29:09;;;;;;;26.50;9.50;;;;;;;11.95;73.94;100025.94;79196;1303;3013535;-64
2023/10/04 02:31:37;;;;;;;33.20;11.00;;;;;;;11.66;75.17;100025.30;78019;1304;3054210;-65
2023/10/04 02:34:05;;;;;;;24.50;9.80;;;;;;;11.50;75.68;100028.77;79204;1301;3013001;-65
2023/10/04 02:36:37;;;;;;;31.00;9.40;;;;;;;11.22;77.14;100028.70;78767;1301;3013265;-64
2023/10/04 02:39:11;;;;;;;29.00;9.10;;;;;;;11.07;77.84;100030.42;79323;1300;3013478;-64
2023/10/04 02:41:41;;;;;;;28.90;10.00;;;;;;;10.85;79.04;100028.95;78080;1302;3054403;-63
2023/10/04 02:44:08;;;;;;;36.10;10.00;;;;;;;10.82;79.32;100025.42;79268;1302;3011834;-62
2023/10/04 02:46:41;;;;;;;35.60;10.20;;;;;;;11.22;77.76;100022.61;78704;1303;3011689;-62
2023/10/04 02:49:09;;;;;;;34.80;11.10;;;;;;;11.76;74.93;100021.20;79148;1303;3011633;-66
2023/10/04 02:51:36;;;;;;;35.30;11.60;;;;;;;11.54;75.02;100023.11;77866;1303;3069013;-60
2023/10/04 02:54:04;;;;;;;40.00;13.40;;;;;;;11.54;74.77;100019.29;79121;1303;3013592;-62
2023/10/04 02:56:34;;;;;;;39.00;13.10;;;;;;;11.35;74.99;100019.27;79177;1302;3011587;-64
2023/10/04 02:59:03;;;;;;;44.10;14.90;;;;;;;11.31;74.88;100021.61;77865;1303;3053201;-61
2023/10/04 03:01:30;;;;;;;51.90;16.40;;;;;;;11.15;75.42;100020.14;79057;1303;3013107;-65
2023/10/04 03:03:58;;;;;;;55.80;17.30;;;;;;;11.03;75.68;100026.41;79237;1302;3013776;-62
2023/10/04 03:06:28;;;;;;;55.40;16.30;;;;;;;11.00;75.43;100025.89;78109;1300;3068923;-64
2023/10/04 03:08:56;;;;;;;32.60;12.60;;;;;;;10.90;75.94;100026.91;79271;1301;3012917;-64
2023/10/04 03:11:23;;;;;;;45.40;13.70;;;;;;;11.24;75.24;100024.06;79142;1299;3011589;-68
2023/10/04 03:13:51;;;;;;;49.10;15.40;;;;;;;11.59;73.59;100018.10;78026;1301;3055091;-67
2023/10/04 03:16:18;;;;;;;56.30;15.60;;;;;;;11.62;73.16;100024.59;79210;1300;3013597;-71
2023/10/04 03:18:45;;;;;;;41.40;14.10;;;;;;;11.48;73.19;100018.72;79235;1300;3013263;-63
2023/10/04 03:21:20;;;;;;;42.90;14.30;;;;;;;11.35;73.32;100023.80;78023;1300;3067676;-63
2023/10/04 03:23:54;;;;;;;47.40;14.00;;;;;;;11.05;74.28;100030.71;78729;1300;3012954;-66
2023/10/04 03:26:20;;;;;;;40.90;12.60;;;;;;;10.87;74.30;100026.23;79173;1299;3011997;-65
2023/10/04 03:28:52;;;;;;;37.80;13.40;;;;;;;10.76;74.11;100029.60;78110;1300;3055707;-63
2023/10/04 03:31:20;;;;;;;34.90;12.80;;;;;;;10.72;73.55;100033.32;79241;1300;3013394;-66
2023/10/04 03:33:53;;;;;;;26.90;11.40;;;;;;;10.67;73.01;100035.16;78073;1296;3050343;-64
2023/10/04 03:36:21;;;;;;;30.60;10.70;;;;;;;10.55;72.80;100033.81;79397;1300;3013012;-59
2023/10/04 03:38:53;;;;;;;35.70;11.30;;;;;;;10.54;72.50;100034.41;78137;1301;3052147;-64
2023/10/04 03:41:20;;;;;;;34.10;10.50;;;;;;;10.50;72.36;100035.66;79357;1300;3013007;-63
2023/10/04 03:43:49;;;;;;;28.20;11.90;;;;;;;10.39;72.80;100039.17;79277;1300;3011609;-66
2023/10/04 03:46:18;;;;;;;31.00;10.00;;;;;;;10.35;72.62;100041.98;77984;1300;3050124;-64
2023/10/04 03:48:48;;;;;;;32.00;10.80;;;;;;;10.99;70.96;100040.46;79208;1300;3012763;-66
2023/10/04 03:51:20;;;;;;;32.50;11.10;;;;;;;11.49;68.88;100043.00;78323;1300;3052878;-67
2023/10/04 03:53:48;;;;;;;26.40;11.20;;;;;;;11.41;68.29;100038.03;79343;1300;3012839;-63
2023/10/04 03:56:17;;;;;;;32.40;11.30;;;;;;;11.30;67.81;100042.52;78019;1302;3069643;-66
2023/10/04 03:59:36;;;;;;;28.40;10.90;;;;;;;11.03;68.28;100052.70;78096;1298;3051126;-61
2023/10/04 04:02:55;;;;;;;29.30;11.00;;;;;;;10.76;68.53;100049.02;78056;1295;3055419;-67
2023/10/04 04:06:14;;;;;;;33.40;12.40;;;;;;;10.51;69.31;100053.82;78176;1305;3049000;-70
2023/10/04 04:09:33;;;;;;;25.60;11.60;;;;;;;10.54;69.03;100057.35;78137;1301;3053240;-71
2023/10/04 04:32:57;;;;;;;30.60;11.10;;;;;;;10.48;69.11;100056.27;78443;1297;3057591;-68
2023/10/04 04:36:42;;;;;;;34.00;12.20;;;;;;;10.56;68.57;100053.73;78018;1299;3049268;-71
2023/10/04 04:40:08;;;;;;;24.60;10.20;;;;;;;10.61;68.31;100054.73;78102;1299;3053148;-67
2023/10/04 04:43:17;;;;;;;29.90;9.90;;;;;;;10.66;67.97;100053.97;78324;1298;3049129;-66
2023/10/04 04:46:13;;;;;;;28.50;10.80;;;;;;;10.72;67.65;100052.40;78139;1304;3052258;-66
2023/10/04 05:12:23;;;;;;;23.70;8.10;;;;;;;11.14;66.49;100049.54;78383;1302;3054425;-68
2023/10/04 05:14:50;;;;;;;23.20;8.10;;;;;;;11.20;66.53;100052.52;79242;1301;3013158;-66
2023/10/04 05:17:17;;;;;;;25.30;9.20;;;;;;;11.25;66.57;100056.07;79236;1301;3011586;-68
2023/10/04 05:19:44;;;;;;;26.70;8.40;;;;;;;11.31;66.55;100047.55;78066;1299;3057173;-69
2023/10/04 05:22:13;;;;;;;25.70;8.70;;;;;;;11.37;66.27;100048.64;79525;1299;3013797;-65
2023/10/04 05:24:40;;;;;;;21.60;6.80;;;;;;;11.43;66.49;100050.77;79140;1299;3011928;-71
2023/10/04 05:27:08;;;;;;;19.60;8.20;;;;;;;11.50;66.04;100047.39;78556;1300;3051427;-70
2023/10/04 05:29:34;;;;;;;23.00;8.60;;;;;;;11.45;66.11;100046.42;79590;1301;3012811;-71
2023/10/04 05:32:01;;;;;;;23.80;8.70;;;;;;;11.51;66.31;100038.38;79729;1297;3011605;-67
2023/10/04 05:34:29;;;;;;;26.40;9.10;;;;;;;11.60;66.14;100035.27;78030;1301;3026337;-63
2023/10/04 05:36:57;;;;;;;35.60;9.30;;;;;;;11.65;65.91;100035.69;79416;1299;3013294;-74
2023/10/04 05:39:23;;;;;;;28.90;9.90;;;;;;;11.65;65.79;100041.27;79464;1300;3011634;-63
2023/10/04 05:41:51;;;;;;;26.80;9.20;;;;;;;11.68;65.64;100040.91;78066;1303;3052794;-66
2023/10/04 05:44:17;;;;;;;31.10;10.00;;;;;;;11.73;65.39;100040.11;79589;1300;3013326;-65
2023/10/04 05:46:45;;;;;;;33.30;12.00;;;;;;;11.78;64.91;100044.09;79455;1301;3011647;-66
2023/10/04 05:49:13;;;;;;;31.40;9.80;;;;;;;11.85;64.45;100047.21;78212;1299;3056667;-68
2023/10/04 05:51:39;;;;;;;22.80;8.20;;;;;;;11.93;64.02;100049.18;79284;1298;3013147;-65
2023/10/04 05:54:08;;;;;;;33.70;9.40;;;;;;;11.96;63.91;100048.52;79414;1300;3011638;-71
2023/10/04 05:56:36;;;;;;;32.50;9.00;;;;;;;11.96;63.90;100051.88;78121;1301;3052493;-68
2023/10/04 05:59:02;;;;;;;36.50;9.30;;;;;;;12.05;63.44;100047.48;79429;1300;3018737;-66
2023/10/04 06:01:29;;;;;;;34.60;9.60;;;;;;;12.09;63.44;100048.84;79563;1300;3013147;-69
2023/10/04 06:03:57;;;;;;;35.00;9.50;;;;;;;12.19;62.99;100051.09;78233;1299;3026727;-70
2023/10/04 06:06:24;;;;;;;27.60;9.10;;;;;;;12.28;62.76;100049.36;79470;1300;3013265;-70
2023/10/04 06:08:54;;;;;;;22.70;8.50;;;;;;;12.34;62.28;100049.52;79418;1297;3011565;-72
2023/10/04 06:11:22;;;;;;;28.80;8.90;;;;;;;12.43;61.79;100051.62;78421;1297;3052735;-69
2023/10/04 06:13:49;;;;;;;23.90;8.10;;;;;;;12.56;61.71;100048.55;79546;1298;3012982;-66
2023/10/04 06:16:19;;;;;;;21.60;7.90;;;;;;;12.58;61.39;100045.80;79646;1299;3013244;-71
2023/10/04 06:18:51;;;;;;;26.30;8.50;;;;;;;12.66;61.23;100051.50;78201;1297;3057415;-70
2023/10/04 06:21:17;;;;;;;25.00;8.60;;;;;;;12.74;61.54;100047.51;79369;1297;3011866;-68
2023/10/04 06:23:45;;;;;;;29.30;9.20;;;;;;;12.81;61.34;100053.92;78337;1298;3026625;-63
2023/10/04 06:26:16;;;;;;;21.20;8.40;;;;;;;12.88;60.82;100055.25;79487;1297;3018870;-68
2023/10/04 06:28:46;;;;;;;27.10;8.70;;;;;;;13.05;60.88;100055.26;78267;1297;3052847;-72
2023/10/04 06:31:12;;;;;;;26.30;8.50;;;;;;;13.13;60.64;100059.91;79555;1300;3012891;-64
2023/10/04 06:33:40;;;;;;;24.70;8.40;;;;;;;13.23;60.39;100058.91;79465;1297;3011944;-73
2023/10/04 06:36:09;;;;;;;22.10;8.30;;;;;;;13.38;59.42;100057.32;78469;1300;3048301;-66
2023/10/04 06:38:35;;;;;;;22.90;8.30;;;;;;;13.41;58.93;100060.09;79402;1298;3013052;-68
2023/10/04 06:41:03;;;;;;;23.30;8.70;;;;;;;13.36;58.57;100061.69;79589;1298;3013090;-69
2023/10/04 06:43:31;;;;;;;22.30;9.00;;;;;;;13.34;58.65;100060.56;78521;1301;3052651;-72
2023/10/04 06:45:57;;;;;;;24.10;8.20;;;;;;;13.38;58.52;100056.62;79563;1302;3013345;-65
2023/10/04 06:48:24;;;;;;;22.60;9.10;;;;;;;13.40;58.30;100060.52;79438;1295;3013429;-70
2023/10/04 06:50:52;;;;;;;21.80;9.80;;;;;;;13.53;58.22;100059.54;78285;1301;3026378;-69
2023/10/04 06:53:18;;;;;;;25.60;9.00;;;;;;;13.61;58.29;100062.73;79275;1298;3013705;-70
2023/10/04 06:55:44;;;;;;;26.90;9.70;;;;;;;13.70;58.11;100058.45;79332;1300;3011710;-76
2023/10/04 06:58:12;;;;;;;26.10;9.70;;;;;;;13.79;57.90;100058.75;78149;1301;3026161;-74
2023/10/04 07:00:40;;;;;;;35.10;10.50;;;;;;;13.81;57.58;100061.15;79497;1303;3018877;-76
2023/10/04 07:03:07;;;;;;;24.40;9.70;;;;;;;13.88;57.62;100062.44;79522;1301;3011752;-76
2023/10/04 07:05:38;;;;;;;30.90;10.70;;;;;;;13.90;57.34;100060.52;78486;1299;3048951;-70
2023/10/04 07:08:06;;;;;;;27.90;10.30;;;;;;;13.95;57.23;100057.18;79452;1298;3012264;-72
2023/10/04 07:10:34;;;;;;;36.00;10.10;;;;;;;14.05;56.93;100057.58;78425;1298;3027922;-73
2023/10/04 07:13:05;;;;;;;33.40;10.10;;;;;;;14.16;56.53;100054.81;79611;1302;3012924;-73
2023/10/04 07:15:39;;;;;;;26.90;9.60;;;;;;;14.28;56.88;100062.45;78355;1301;3070010;-73
2023/10/04 07:18:06;;;;;;;29.70;9.60;;;;;;;14.35;56.44;100066.58;79488;1301;3011807;-76
2023/10/04 07:20:34;;;;;;;23.00;9.30;;;;;;;14.47;56.33;100061.20;78274;1299;3055861;-73
2023/10/04 07:23:05;;;;;;;27.40;9.30;;;;;;;14.55;56.49;100059.38;79416;1300;3019141;-72
2023/10/04 07:25:47;;;;;;;24.80;8.90;;;;;;;14.73;56.34;100054.36;78226;1300;3048933;-73
2023/10/04 07:28:14;;;;;;;28.60;8.90;;;;;;;14.84;55.18;100057.64;78429;1301;3053430;-74
2023/10/04 07:30:41;;;;;;;28.50;8.80;;;;;;;14.98;54.90;100051.92;79759;1302;3018571;-72
2023/10/04 07:33:08;;;;;;;25.70;9.70;;;;;;;15.13;54.79;100051.73;79429;1301;3011816;-76
2023/10/04 07:35:37;;;;;;;34.30;9.00;;;;;;;15.30;54.48;100053.95;78136;1301;3025975;-72
2023/10/04 07:38:05;;;;;;;22.90;8.50;;;;;;;15.39;53.62;100056.98;79505;1300;3012853;-71
2023/10/04 07:40:32;;;;;;;22.00;7.70;;;;;;;15.53;53.62;100056.70;79607;1299;3011573;-79
2023/10/04 07:43:01;;;;;;;27.90;8.50;;;;;;;15.66;53.42;100053.65;78343;1301;3052929;-76
2023/10/04 07:45:28;;;;;;;23.70;8.90;;;;;;;15.82;53.13;100052.66;80382;1301;3013228;-76
2023/10/04 07:47:56;;;;;;;22.00;8.10;;;;;;;15.94;52.22;100047.27;79439;1297;3013016;-75
2023/10/04 07:50:25;;;;;;;24.20;8.10;;;;;;;16.09;52.46;100045.78;78172;1300;3057552;-74
2023/10/04 07:52:52;;;;;;;19.60;7.40;;;;;;;16.22;51.53;100045.34;79558;1298;3013045;-76
2023/10/04 07:55:19;;;;;;;24.80;8.60;;;;;;;16.34;51.17;100041.07;79503;1298;3013507;-75
2023/10/04 07:57:50;;;;;;;23.50;8.30;;;;;;;16.43;50.79;100041.14;78274;1301;3052456;-77
2023/10/04 08:00:17;;;;;;;17.00;7.20;;;;;;;16.59;50.89;100041.52;79548;1298;3013766;-76
2023/10/04 08:02:50;;;;;;;21.90;8.90;;;;;;;16.72;50.27;100044.35;79517;1301;3012716;-76
2023/10/04 08:05:23;;;;;;;19.00;6.90;;;;;;;16.80;49.43;100040.63;78138;1298;3055305;-76
2023/10/04 08:07:50;;;;;;;;;;;;;;;16.92;49.44;100041.63;79570;1298;3011393;-75
2023/10/04 08:10:23;;;;;;;23.30;6.90;;;;;;;16.97;48.84;100043.95;78195;1301;3054308;-78
2023/10/04 08:12:51;;;;;;;23.10;7.30;;;;;;;17.03;48.21;100042.20;79489;1299;3011872;-78
2023/10/04 08:15:25;;;;;;;18.80;6.20;;;;;;;17.14;48.43;100041.31;78361;1301;3052444;-78
2023/10/04 08:17:53;;;;;;;17.60;6.70;;;;;;;17.27;48.18;100035.54;79472;1301;3011598;-76
2023/10/04 08:20:22;;;;;;;22.10;7.10;;;;;;;17.37;48.08;100027.82;78148;1301;3068626;-74
2023/10/04 08:22:49;;;;;;;22.00;6.80;;;;;;;17.40;47.21;100026.39;79590;1298;3013309;-77
2023/10/04 08:25:21;;;;;;;22.20;6.50;;;;;;;17.52;47.26;100028.08;79463;1301;3013596;-75
2023/10/04 08:27:49;;;;;;;22.60;6.50;;;;;;;17.58;46.44;100026.14;78262;1300;3052984;-77
2023/10/04 08:30:17;;;;;;;15.90;5.60;;;;;;;17.59;46.61;100024.23;79267;1305;3013080;-76
2023/10/04 08:32:47;;;;;;;29.60;7.70;;;;;;;17.66;46.46;100015.20;79601;1297;3012840;-75
2023/10/04 08:35:21;;;;;;;20.00;6.80;;;;;;;17.76;46.95;100012.98;78164;1299;3069530;-76
2023/10/04 08:37:53;;;;;;;16.60;6.20;;;;;;;17.76;46.40;100017.59;78931;1301;3012839;-76
2023/10/04 08:40:20;;;;;;;23.00;7.40;;;;;;;17.71;46.18;100010.56;79528;1295;3012092;-76
2023/10/04 08:42:51;;;;;;;20.60;7.20;;;;;;;17.92;46.37;100009.03;78280;1296;3027327;-77
2023/10/04 08:45:18;;;;;;;18.70;6.70;;;;;;;18.12;45.90;100015.07;79422;1299;3011453;-77
2023/10/04 08:47:50;;;;;;;17.90;7.00;;;;;;;18.12;46.14;100001.70;78906;1297;3012157;-74
2023/10/04 08:50:20;;;;;;;19.20;7.40;;;;;;;17.94;45.25;100010.11;79518;1296;3013178;-78
2023/10/04 08:52:49;;;;;;;22.20;7.10;;;;;;;18.02;45.83;99998.30;78292;1301;3052793;-76
2023/10/04 08:55:17;;;;;;;18.10;6.60;;;;;;;18.20;46.02;99997.14;79727;1300;3012910;-75
2023/10/04 08:57:46;;;;;;;26.70;7.30;;;;;;;18.34;45.74;99999.21;79191;1297;3011716;-77
2023/10/04 09:00:18;;;;;;;21.30;6.60;;;;;;;18.39;45.69;99988.50;79415;1296;3013341;-81
2023/10/04 09:02:46;;;;;;;25.20;6.80;;;;;;;18.45;45.17;99989.23;78432;1297;3048893;-74
2023/10/04 09:05:14;;;;;;;20.40;6.70;;;;;;;18.29;44.78;99989.36;79600;1301;3012880;-75
2023/10/04 09:07:45;;;;;;;18.80;6.50;;;;;;;18.48;45.02;99980.41;79559;1297;3011818;-77
2023/10/04 09:10:17;;;;;;;24.20;6.60;;;;;;;18.60;44.72;99979.56;78450;1300;3053721;-80
2023/10/04 09:12:44;;;;;;;18.30;6.00;;;;;;;18.77;44.92;99968.94;79632;1303;3013284;-76
2023/10/04 09:15:13;;;;;;;17.60;6.50;;;;;;;18.84;43.79;99973.31;78660;1299;3025677;-75
2023/10/04 09:17:55;;;;;;;16.60;6.00;;;;;;;18.82;43.70;99972.88;80137;1297;3012886;-74
2023/10/04 09:20:25;;;;;;;18.50;6.20;;;;;;;18.91;42.95;99971.95;78877;1300;3049196;-76
2023/10/04 09:22:52;;;;;;;15.00;6.10;;;;;;;19.02;42.24;99972.62;79855;1301;3012370;-80
2023/10/04 09:25:22;;;;;;;20.20;7.80;;;;;;;18.92;43.03;99961.79;79104;1301;3011576;-75
2023/10/04 09:27:54;;;;;;;19.70;7.60;;;;;;;19.04;43.07;99969.58;79797;1299;3013893;-75
2023/10/04 09:30:26;;;;;;;24.00;7.00;;;;;;;19.07;42.16;99970.90;78611;1299;3068628;-75
2023/10/04 09:32:53;;;;;;;20.10;7.40;;;;;;;19.03;42.04;99952.80;79790;1302;3011505;-74
2023/10/04 09:35:21;;;;;;;17.80;7.40;;;;;;;19.00;42.61;99952.08;78409;1297;3025836;-82
2023/10/04 09:37:49;;;;;;;19.20;7.70;;;;;;;19.07;42.44;99944.27;79758;1295;3018682;-75
2023/10/04 09:40:17;;;;;;;25.60;8.50;;;;;;;19.14;41.46;99935.54;79818;1302;3011699;-76
2023/10/04 09:42:52;;;;;;;20.30;7.90;;;;;;;19.05;41.41;99934.77;78469;1302;3053631;-78
2023/10/04 09:45:24;;;;;;;28.00;8.90;;;;;;;19.09;41.55;99933.17;79484;1302;3013248;-70
2023/10/04 09:47:55;;;;;;;16.70;8.10;;;;;;;19.05;41.83;99931.88;78319;1299;3069960;-73
2023/10/04 09:50:23;;;;;;;24.50;9.40;;;;;;;19.23;42.04;99929.36;79540;1297;3011910;-69
2023/10/04 09:52:51;;;;;;;21.90;9.10;;;;;;;19.35;41.82;99918.61;78223;1295;3027431;-73
2023/10/04 09:55:21;;;;;;;30.00;9.50;;;;;;;19.22;41.29;99917.39;79428;1300;3012871;-67
2023/10/04 09:57:53;;;;;;;22.90;8.60;;;;;;;19.33;40.37;99918.41;79112;1298;3011616;-67
2023/10/04 10:00:19;;;;;;;24.40;8.50;;;;;;;19.43;40.41;99915.19;79429;1298;3014123;-72
2023/10/04 10:02:50;;;;;;;23.30;8.30;;;;;;;19.48;40.97;99907.66;79357;1301;3011724;-74
2023/10/04 10:05:31;;;;;;;23.00;8.40;;;;;;;19.54;41.25;99899.98;78413;1297;3068968;-71
2023/10/04 10:08:06;;;;;;;22.00;8.60;;;;;;;19.69;40.53;99895.73;78245;1300;3051859;-70
2023/10/04 10:10:40;;;;;;;31.70;9.30;;;;;;;19.63;40.74;99898.96;78931;1297;3011972;-67
2023/10/04 10:13:08;;;;;;;30.20;8.20;;;;;;;19.72;40.89;99889.27;79407;1297;3012140;-69
2023/10/04 10:15:36;;;;;;;27.60;8.80;;;;;;;19.91;40.39;99881.83;78211;1297;3047842;-72
2023/10/04 10:18:03;;;;;;;29.50;9.10;;;;;;;19.85;40.49;99885.02;79444;1300;3013669;-69
2023/10/04 10:20:30;;;;;;;31.20;8.50;;;;;;;19.75;40.47;99887.61;79506;1298;3011573;-70
2023/10/04 10:22:58;;;;;;;24.80;8.40;;;;;;;19.80;40.21;99876.30;78215;1298;3054208;-69
2023/10/04 10:25:28;;;;;;;26.50;9.30;;;;;;;19.99;39.16;99881.83;79510;1297;3013763;-67
2023/10/04 10:27:57;;;;;;;28.10;10.10;;;;;;;19.94;38.81;99878.58;79040;1298;3011758;-70
2023/10/04 10:30:28;;;;;;;21.20;8.90;;;;;;;19.86;39.24;99870.75;79531;1297;3013150;-74
2023/10/04 10:32:58;;;;;;;25.80;9.00;;;;;;;19.71;39.71;99864.86;78381;1300;3053396;-70
2023/10/04 10:35:48;;;;;;;26.60;10.20;;;;;;;19.88;39.58;99861.83;79455;1298;3013209;-71
2023/10/04 10:38:41;;;;;;;23.70;9.10;;;;;;;20.02;38.82;99865.02;78148;1302;3052495;-67
2023/10/04 10:41:27;;;;;;;28.80;9.10;;;;;;;20.04;38.95;99868.39;78303;1300;3052337;-67
2023/10/04 10:44:14;;;;;;;29.30;9.50;;;;;;;20.01;39.07;99858.55;78346;1297;3068758;-61
2023/10/04 10:47:04;;;;;;;22.10;8.00;;;;;;;20.09;38.85;99846.59;78121;1300;3052773;-65
2023/10/04 10:49:48;;;;;;;33.70;9.90;;;;;;;20.02;37.80;99863.09;78205;1300;3056524;-71
2023/10/04 10:52:25;;;;;;;31.50;8.60;;;;;;;19.93;37.08;99856.95;78061;1300;3049699;-65
2023/10/04 10:54:54;;;;;;;26.30;9.70;;;;;;;20.22;36.71;99840.89;78150;1296;3053204;-68
2023/10/04 10:57:21;;;;;;;36.70;9.60;;;;;;;20.38;36.74;99842.06;79374;1302;3014887;-69
2023/10/04 10:59:49;;;;;;;25.60;9.10;;;;;;;20.50;36.49;99847.09;79393;1300;3012344;-65
2023/10/04 11:02:18;;;;;;;29.80;9.60;;;;;;;20.58;37.41;99839.80;78137;1298;3069898;-72
2023/10/04 11:04:44;;;;;;;29.20;9.70;;;;;;;20.65;36.61;99842.13;79322;1296;3013055;-72
2023/10/04 11:07:17;;;;;;;24.90;8.90;;;;;;;20.43;37.07;99841.19;79358;1295;3011912;-63
2023/10/04 11:09:54;;;;;;;28.90;9.90;;;;;;;20.60;37.17;99836.40;78147;1297;3054066;-74
2023/10/04 11:12:22;;;;;;;25.60;9.80;;;;;;;20.69;36.55;99836.45;78112;1303;3050263;-73
2023/10/04 11:14:50;;;;;;;28.50;10.20;;;;;;;20.65;36.25;99834.45;79558;1300;3015874;-76
2023/10/04 11:17:18;;;;;;;36.80;10.90;;;;;;;20.74;36.44;99840.92;79344;1300;3013544;-77
2023/10/04 11:19:45;;;;;;;38.60;10.20;;;;;;;20.78;36.86;99832.34;78012;1300;3051506;-69
2023/10/04 11:22:14;;;;;;;27.90;10.80;;;;;;;20.75;36.49;99842.27;79353;1295;3020689;-68
2023/10/04 11:24:40;;;;;;;26.80;10.20;;;;;;;20.79;36.73;99830.61;79279;1298;3011591;-68
2023/10/04 11:27:09;;;;;;;33.30;10.30;;;;;;;20.81;37.00;99830.48;78033;1301;3050062;-67
2023/10/04 11:29:35;;;;;;;25.00;9.60;;;;;;;20.74;37.40;99822.54;79437;1302;3013652;-70
2023/10/04 11:32:02;;;;;;;29.20;10.40;;;;;;;20.96;37.53;99816.89;79235;1298;3011730;-68
2023/10/04 11:34:39;;;;;;;29.90;9.60;;;;;;;20.95;37.08;99813.64;78117;1300;3026623;-69
2023/10/04 11:37:08;;;;;;;30.60;9.20;;;;;;;21.05;37.10;99809.45;78203;1298;3056571;-70
2023/10/04 11:39:34;;;;;;;26.90;9.30;;;;;;;21.09;37.19;99816.11;79452;1297;3012790;-70
2023/10/04 11:42:02;;;;;;;22.60;7.60;;;;;;;21.03;36.90;99807.45;79394;1297;3011664;-72
2023/10/04 11:44:33;;;;;;;25.60;7.70;;;;;;;21.12;36.23;99804.61;78142;1301;3052081;-67
2023/10/04 11:47:03;;;;;;;24.50;7.80;;;;;;;21.16;36.21;99799.61;79417;1303;3011541;-66
2023/10/04 11:49:32;;;;;;;20.00;7.10;;;;;;;21.19;35.74;99793.83;78317;1297;3068409;-69
2023/10/04 11:52:01;;;;;;;24.60;7.80;;;;;;;21.38;35.49;99799.89;79294;1298;3013379;-66
2023/10/04 11:54:38;;;;;;;21.70;7.30;;;;;;;21.39;35.06;99806.18;78953;1298;3011655;-67
2023/10/04 11:57:06;;;;;;;21.10;6.50;;;;;;;21.29;35.15;99800.78;78254;1297;3049754;-71
2023/10/04 11:59:33;;;;;;;31.30;7.50;;;;;;;21.36;35.41;99789.58;79253;1300;3013586;-71
2023/10/04 12:02:00;;;;;;;19.30;7.40;;;;;;;21.46;35.44;99788.39;79299;1301;3012980;-73
2023/10/04 12:04:29;;;;;;;28.90;7.70;;;;;;;21.38;35.31;99781.73;77995;1296;3050647;-65